Time;durP1;ratioP1;P1;durP2;ratioP2;P2;SDS_P1;SDS_P2;PMS_P1;PMS_P2;Temp;Humidity;BMP_temperature;BMP_pressure;BME280_temperature;BME280_humidity;BME280_pressure;Samples;Min_cycle;Max_cycle;Signal;HPM_P1;HPM_P2
2021/12/05 00:18:03;;;;;;;113.27;52.07;;;;;;;4.38;100.00;94079.13;5104397;28;20241;-77
2021/12/05 00:21:07;;;;;;;116.67;51.80;;;;;;;4.51;100.00;94077.38;5104196;28;20293;-78
2021/12/05 00:23:40;;;;;;;119.17;52.13;;;;;;;4.51;100.00;94074.00;5103728;28;20667;-78
2021/12/05 00:26:11;;;;;;;114.67;52.73;;;;;;;4.70;100.00;94088.69;5104302;28;20342;-79
2021/12/05 00:34:23;;;;;;;178.80;85.07;;;;;;;4.61;100.00;94082.16;5101382;28;20269;-78
2021/12/05 00:40:11;;;;;;;155.47;74.90;;;;;;;4.64;100.00;94086.91;5100872;28;20377;-78
2021/12/05 00:48:37;;;;;;;165.13;81.47;;;;;;;4.77;100.00;94083.53;5085729;28;20211;-77
2021/12/05 00:57:24;;;;;;;186.67;90.50;;;;;;;4.67;100.00;94072.84;5102888;28;20698;-77
2021/12/05 01:00:08;;;;;;;191.77;88.60;;;;;;;4.65;100.00;94057.59;5101915;28;20208;-78
2021/12/05 01:05:49;;;;;;;170.47;86.00;;;;;;;4.59;100.00;94059.16;5087678;28;20216;-78
2021/12/05 01:13:57;;;;;;;155.03;74.43;;;;;;;4.50;100.00;94051.84;5086405;28;20654;-78
2021/12/05 01:16:28;;;;;;;122.10;57.43;;;;;;;3.98;100.00;94053.28;5089741;28;20206;-78
2021/12/05 01:19:00;;;;;;;104.10;48.43;;;;;;;3.76;100.00;94053.59;5088541;28;20576;-78
2021/12/05 01:21:28;;;;;;;137.90;63.57;;;;;;;3.43;100.00;94040.59;5089646;28;20200;-78
2021/12/05 01:24:03;;;;;;;117.07;57.30;;;;;;;3.38;100.00;94048.84;5089203;28;20203;-78
2021/12/05 01:26:38;;;;;;;124.03;58.90;;;;;;;3.46;100.00;94045.38;5086494;28;20249;-78
2021/12/05 01:29:22;;;;;;;133.40;63.17;;;;;;;3.60;100.00;94035.94;5084631;28;20200;-78
2021/12/05 01:32:01;;;;;;;104.23;48.50;;;;;;;3.71;100.00;94033.63;5088989;28;20243;-75
2021/12/05 01:34:42;;;;;;;72.37;35.30;;;;;;;3.69;100.00;94024.53;5088501;28;20212;-76
2021/12/05 01:37:20;;;;;;;73.73;34.57;;;;;;;3.72;100.00;94012.06;5082439;28;20203;-76
2021/12/05 01:40:04;;;;;;;75.97;37.83;;;;;;;3.81;100.00;94023.00;5087882;28;20285;-78
2021/12/05 01:48:36;;;;;;;99.60;47.03;;;;;;;3.85;100.00;94012.13;5088450;28;20216;-78
2021/12/05 01:51:32;;;;;;;100.03;45.27;;;;;;;3.90;100.00;94009.75;5087500;28;20572;-78
2021/12/05 01:57:06;;;;;;;91.67;45.40;;;;;;;3.92;100.00;94019.88;5088002;28;20200;-76
2021/12/05 02:02:53;;;;;;;93.43;43.10;;;;;;;4.03;100.00;94021.88;5087141;28;20204;-78
2021/12/05 02:11:21;;;;;;;96.30;43.27;;;;;;;3.96;100.00;94034.69;5087418;28;20212;-78
2021/12/05 02:31:03;;;;;;;119.27;54.20;;;;;;;4.19;100.00;94051.56;5088844;28;20231;-77
2021/12/05 02:39:26;;;;;;;89.47;41.07;;;;;;;4.00;100.00;94035.91;5088273;28;20196;-78
2021/12/05 02:41:55;;;;;;;70.23;33.30;;;;;;;3.85;100.00;94030.13;5087361;28;20215;-79
2021/12/05 02:44:24;;;;;;;69.57;33.67;;;;;;;3.79;100.00;94030.09;5087667;28;20295;-79
2021/12/05 02:46:59;;;;;;;67.37;32.97;;;;;;;3.87;100.00;94027.34;5087412;28;20950;-77
2021/12/05 02:49:30;;;;;;;67.60;31.50;;;;;;;3.96;100.00;94023.63;5087893;28;20209;-78
2021/12/05 02:52:01;;;;;;;60.90;30.00;;;;;;;4.14;100.00;94030.78;5086600;28;20637;-76
2021/12/05 02:54:38;;;;;;;57.40;27.67;;;;;;;4.17;100.00;94025.25;5087867;28;20236;-77
2021/12/05 02:57:07;;;;;;;57.63;27.30;;;;;;;4.12;100.00;94022.50;5088984;28;20196;-77
2021/12/05 02:59:44;;;;;;;56.53;27.93;;;;;;;4.15;100.00;94017.75;5088566;28;20248;-77
2021/12/05 03:02:17;;;;;;;59.27;27.63;;;;;;;4.26;100.00;94016.38;5088362;28;20196;-77
2021/12/05 03:04:54;;;;;;;55.53;26.33;;;;;;;4.32;100.00;94024.13;5086110;28;20398;-79
2021/12/05 03:07:37;;;;;;;57.83;29.20;;;;;;;4.40;100.00;94023.13;5083860;28;20200;-77
2021/12/05 03:10:09;;;;;;;60.87;29.87;;;;;;;4.51;100.00;94014.84;5088601;28;20220;-78
2021/12/05 03:12:39;;;;;;;56.33;28.60;;;;;;;4.59;100.00;94025.72;5088098;28;20219;-78
2021/12/05 03:15:11;;;;;;;57.67;29.87;;;;;;;4.55;100.00;94021.97;5088720;28;20216;-77
2021/12/05 03:17:39;;;;;;;55.60;27.43;;;;;;;4.55;100.00;94016.03;5086926;28;20196;-77
2021/12/05 03:20:08;;;;;;;54.53;26.60;;;;;;;4.51;100.00;94013.06;5087025;28;20799;-77
2021/12/05 03:22:38;;;;;;;52.40;27.67;;;;;;;4.53;100.00;94002.59;5086769;28;20308;-77
2021/12/05 03:25:10;;;;;;;52.70;26.83;;;;;;;4.69;100.00;94019.41;5088040;28;20200;-77
2021/12/05 03:27:41;;;;;;;51.87;27.13;;;;;;;4.75;100.00;94019.41;5087179;28;20204;-77
2021/12/05 03:30:12;;;;;;;52.50;25.97;;;;;;;4.83;100.00;94015.84;5087405;28;20208;-76
2021/12/05 03:32:41;;;;;;;48.47;25.50;;;;;;;4.91;100.00;94016.44;5086912;28;20291;-76
2021/12/05 03:35:11;;;;;;;50.80;25.47;;;;;;;4.96;100.00;94013.28;5081438;28;20228;-76
2021/12/05 03:37:39;;;;;;;55.23;26.30;;;;;;;4.79;100.00;94022.38;5085107;28;20553;-77
2021/12/05 03:40:12;;;;;;;47.37;24.27;;;;;;;4.69;100.00;94009.09;5081423;28;20196;-77
2021/12/05 03:42:41;;;;;;;52.30;26.40;;;;;;;4.73;100.00;94011.09;5087459;28;20194;-76
2021/12/05 03:45:13;;;;;;;46.00;24.87;;;;;;;4.71;100.00;94007.91;5082822;28;20228;-76
2021/12/05 03:47:41;;;;;;;50.57;25.93;;;;;;;4.71;100.00;94009.69;5086898;28;20301;-76
2021/12/05 03:50:11;;;;;;;60.90;29.93;;;;;;;4.67;100.00;94019.63;5087834;28;20197;-76
2021/12/05 03:52:42;;;;;;;56.57;27.27;;;;;;;4.72;100.00;94008.72;5087084;28;20319;-77
2021/12/05 03:55:14;;;;;;;53.13;26.23;;;;;;;4.75;100.00;94006.53;5087704;28;20266;-76
2021/12/05 03:57:43;;;;;;;53.63;26.93;;;;;;;4.81;100.00;94010.91;5087305;28;20250;-76
2021/12/05 04:00:15;;;;;;;53.57;27.03;;;;;;;4.63;100.00;94015.03;5087211;28;20794;-76
2021/12/05 04:02:44;;;;;;;54.93;26.10;;;;;;;4.41;100.00;94007.53;5086492;28;20197;-76
2021/12/05 04:05:13;;;;;;;56.03;25.77;;;;;;;4.16;100.00;94011.63;5087760;28;20211;-76
2021/12/05 04:07:41;;;;;;;59.07;26.87;;;;;;;4.16;100.00;94013.38;5086882;28;20568;-76
2021/12/05 04:10:11;;;;;;;54.30;25.13;;;;;;;4.28;100.00;94015.19;5087759;28;20287;-76
2021/12/05 04:12:41;;;;;;;57.10;26.03;;;;;;;4.47;100.00;94011.84;5087449;28;20216;-76
2021/12/05 04:15:11;;;;;;;48.73;24.83;;;;;;;4.66;100.00;94024.94;5087722;28;20221;-76
2021/12/05 04:17:41;;;;;;;51.93;25.27;;;;;;;4.72;100.00;94014.66;5086881;28;20207;-77
2021/12/05 04:20:12;;;;;;;56.37;25.97;;;;;;;4.83;100.00;94016.63;5086579;28;20197;-77
2021/12/05 04:22:40;;;;;;;51.23;25.00;;;;;;;4.91;100.00;94016.44;5086884;28;20200;-77
2021/12/05 04:25:12;;;;;;;50.23;25.67;;;;;;;4.96;100.00;94026.16;5086677;28;20292;-76
2021/12/05 04:27:43;;;;;;;57.00;26.17;;;;;;;4.95;100.00;94032.28;5087424;28;20609;-76
2021/12/05 04:30:12;;;;;;;49.27;24.83;;;;;;;5.04;100.00;94038.81;5086749;28;20197;-77
2021/12/05 04:32:41;;;;;;;47.70;25.90;;;;;;;5.08;100.00;94033.06;5084601;28;20208;-77
2021/12/05 04:35:11;;;;;;;57.47;28.03;;;;;;;5.10;100.00;94038.81;5081106;28;20297;-77
2021/12/05 04:37:38;;;;;;;65.63;32.33;;;;;;;5.08;100.00;94030.47;5084595;28;20205;-75
2021/12/05 04:40:09;;;;;;;62.27;31.87;;;;;;;5.14;100.00;94032.25;5082808;28;20205;-76
2021/12/05 04:42:40;;;;;;;51.63;26.87;;;;;;;5.13;100.00;94033.25;5087857;28;20201;-77
2021/12/05 04:45:12;;;;;;;64.23;31.30;;;;;;;5.20;100.00;94045.31;5090252;28;20212;-77
2021/12/05 04:47:41;;;;;;;77.00;35.00;;;;;;;5.19;100.00;94034.25;5089897;28;20193;-76
2021/12/05 04:50:10;;;;;;;73.20;36.13;;;;;;;5.34;100.00;94047.69;5090369;28;20200;-76
2021/12/05 04:52:38;;;;;;;70.77;36.80;;;;;;;5.32;100.00;94052.25;5089758;28;20663;-76
2021/12/05 04:55:07;;;;;;;68.53;36.47;;;;;;;5.20;100.00;94046.13;5090806;28;20297;-75
2021/12/05 04:57:38;;;;;;;68.83;34.77;;;;;;;5.24;100.00;94051.66;5090348;28;20326;-75
2021/12/05 05:00:11;;;;;;;70.13;35.67;;;;;;;5.23;100.00;94047.50;5090612;28;20718;-75
2021/12/05 05:02:40;;;;;;;72.20;36.73;;;;;;;5.35;100.00;94067.31;5089480;28;20202;-75
2021/12/05 05:05:10;;;;;;;74.27;35.43;;;;;;;5.36;100.00;94056.00;5089724;28;20193;-76
2021/12/05 05:07:40;;;;;;;70.90;35.47;;;;;;;5.42;100.00;94073.25;5090258;28;20201;-75
2021/12/05 05:10:12;;;;;;;71.97;35.23;;;;;;;5.43;100.00;94069.66;5090362;28;20280;-76
2021/12/05 05:12:42;;;;;;;68.83;35.33;;;;;;;5.42;100.00;94062.94;5089707;28;20210;-76
2021/12/05 05:15:11;;;;;;;75.87;36.77;;;;;;;5.48;100.00;94067.25;5088840;28;20230;-77
2021/12/05 05:17:40;;;;;;;70.77;33.77;;;;;;;5.52;100.00;94072.81;5089638;28;20262;-77
2021/12/05 05:20:20;;;;;;;71.03;34.27;;;;;;;5.52;100.00;94070.25;5088531;28;20202;-77
2021/12/05 05:23:03;;;;;;;69.90;31.93;;;;;;;5.47;100.00;94076.00;5088979;28;20264;-77
2021/12/05 05:39:45;;;;;;;71.97;35.47;;;;;;;4.75;100.00;94068.31;5086223;28;20204;-76
2021/12/05 05:47:58;;;;;;;73.20;35.00;;;;;;;5.06;100.00;94072.88;5087612;28;20203;-76
2021/12/05 05:50:26;;;;;;;81.97;39.00;;;;;;;5.20;100.00;94074.44;5089989;28;20287;-77
2021/12/05 05:52:54;;;;;;;78.37;37.97;;;;;;;5.28;100.00;94065.75;5088672;28;20272;-77
2021/12/05 05:55:22;;;;;;;70.27;36.27;;;;;;;5.38;100.00;94056.59;5089603;28;20676;-77
2021/12/05 05:58:03;;;;;;;71.57;36.50;;;;;;;5.41;100.00;94052.81;5088279;28;20202;-77
2021/12/05 06:00:36;;;;;;;64.13;30.30;;;;;;;5.46;100.00;94055.59;5089358;28;20620;-76
2021/12/05 06:05:52;;;;;;;45.33;22.13;;;;;;;5.50;100.00;94067.88;5088465;28;20209;-77
2021/12/05 06:08:23;;;;;;;49.60;22.33;;;;;;;5.47;100.00;94070.06;5088669;28;20208;-71
2021/12/05 06:10:50;;;;;;;39.60;21.17;;;;;;;5.52;100.00;94077.97;5087949;28;20772;-72
2021/12/05 06:13:18;;;;;;;45.83;22.07;;;;;;;5.48;100.00;94059.53;5088330;28;20215;-71
2021/12/05 06:15:48;;;;;;;40.07;21.57;;;;;;;5.60;100.00;94075.97;5088082;28;20696;-71
2021/12/05 06:18:17;;;;;;;39.87;20.47;;;;;;;5.64;100.00;94087.47;5088621;28;20213;-71
2021/12/05 06:20:47;;;;;;;38.43;20.07;;;;;;;5.60;100.00;94072.59;5087888;28;20204;-71
2021/12/05 06:23:15;;;;;;;38.57;20.00;;;;;;;5.66;100.00;94090.63;5088632;28;20270;-71
2021/12/05 06:25:47;;;;;;;42.33;21.73;;;;;;;5.73;100.00;94094.00;5087929;28;20551;-71
2021/12/05 06:28:22;;;;;;;42.23;21.70;;;;;;;5.74;100.00;94089.66;5088378;28;20207;-71
2021/12/05 06:30:59;;;;;;;46.27;24.00;;;;;;;5.80;100.00;94096.53;5087401;28;20312;-72
2021/12/05 06:47:22;;;;;;;62.87;35.23;;;;;;;5.95;100.00;94140.16;5087110;28;20295;-71
2021/12/05 06:49:51;;;;;;;61.23;31.47;;;;;;;5.94;100.00;94148.91;5087304;28;20226;-71
2021/12/05 06:52:23;;;;;;;55.00;28.43;;;;;;;5.85;100.00;94137.19;5087778;28;20200;-71
2021/12/05 06:54:53;;;;;;;55.13;28.33;;;;;;;5.95;100.00;94140.16;5086668;28;20257;-71
2021/12/05 06:57:25;;;;;;;50.97;27.03;;;;;;;5.65;100.00;94157.84;5085452;28;20196;-72
2021/12/05 06:59:53;;;;;;;52.57;26.93;;;;;;;5.36;100.00;94158.25;5085146;28;20302;-73
2021/12/05 07:02:23;;;;;;;54.67;28.17;;;;;;;5.22;100.00;94146.38;5087001;28;20654;-71
2021/12/05 07:05:16;;;;;;;58.50;30.37;;;;;;;5.27;100.00;94149.94;5086862;28;20199;-72
2021/12/05 07:07:45;;;;;;;57.17;28.43;;;;;;;5.36;100.00;94146.19;5085137;28;20216;-72
2021/12/05 07:10:18;;;;;;;61.23;30.37;;;;;;;5.46;100.00;94148.34;5088284;28;20204;-72
2021/12/05 07:13:27;;;;;;;56.40;29.70;;;;;;;5.63;100.00;94146.94;5086923;28;20640;-70
2021/12/05 07:15:58;;;;;;;56.37;29.40;;;;;;;5.76;100.00;94157.25;5085654;28;20320;-72
2021/12/05 07:23:56;;;;;;;67.70;36.90;;;;;;;6.01;100.00;94142.75;5084699;28;20309;-70
2021/12/05 07:26:32;;;;;;;62.60;32.70;;;;;;;6.13;100.00;94142.91;5086768;28;20205;-71
2021/12/05 07:40:26;;;;;;;57.30;30.87;;;;;;;6.45;100.00;94134.25;5087985;28;20609;-73
2021/12/05 07:42:55;;;;;;;58.10;30.80;;;;;;;6.48;100.00;94133.84;5087258;28;20210;-73
2021/12/05 07:45:30;;;;;;;58.83;31.33;;;;;;;6.43;100.00;94133.69;5086926;28;20195;-72
2021/12/05 07:48:06;;;;;;;63.53;33.23;;;;;;;6.39;100.00;94129.91;5087572;28;20205;-72
2021/12/05 07:50:44;;;;;;;61.60;30.97;;;;;;;6.36;100.00;94122.59;5087567;28;20738;-72
2021/12/05 07:53:20;;;;;;;57.10;31.50;;;;;;;6.50;100.00;94134.44;5081717;28;20261;-71
2021/12/05 07:55:51;;;;;;;58.73;30.43;;;;;;;6.51;100.00;94130.06;5086368;28;20238;-72
2021/12/05 07:58:50;;;;;;;56.50;30.30;;;;;;;6.49;100.00;94130.28;5088121;28;20656;-72
2021/12/05 08:15:14;;;;;;;42.00;21.47;;;;;;;6.77;100.00;94135.91;5088549;28;20697;-72
2021/12/05 08:17:50;;;;;;;36.47;19.67;;;;;;;6.89;100.00;94148.94;5090887;28;20670;-73
2021/12/05 08:20:20;;;;;;;33.27;18.30;;;;;;;6.96;100.00;94154.03;5087089;28;20200;-71
2021/12/05 08:22:50;;;;;;;31.00;16.97;;;;;;;6.70;100.00;94160.16;5089836;28;20212;-71
2021/12/05 08:25:21;;;;;;;32.77;17.53;;;;;;;6.50;100.00;94156.84;5087309;28;20207;-71
2021/12/05 08:27:57;;;;;;;35.87;18.60;;;;;;;6.26;100.00;94146.22;5093286;28;20195;-85
2021/12/05 08:30:30;;;;;;;36.57;18.87;;;;;;;6.36;100.00;94140.66;5093529;28;21064;-84
2021/12/05 08:33:17;;;;;;;34.30;17.33;;;;;;;6.44;100.00;94148.16;5093562;28;20240;-84
2021/12/05 08:36:10;;;;;;;35.07;18.27;;;;;;;6.64;100.00;94154.00;5093499;28;20260;-85
2021/12/05 08:41:50;;;;;;;29.17;17.10;;;;;;;7.02;100.00;94142.88;5089482;28;20214;-82
2021/12/05 08:44:50;;;;;;;33.17;17.27;;;;;;;7.21;100.00;94155.69;5089252;28;20219;-82
2021/12/05 09:21:10;;;;;;;38.73;18.90;;;;;;;8.68;100.00;94103.09;5092956;28;20265;-82
2021/12/05 09:40:31;;;;;;;34.27;19.80;;;;;;;9.30;100.00;94065.47;5086966;28;20690;-82
2021/12/05 10:06:44;;;;;;;27.20;17.23;;;;;;;15.59;73.99;94050.34;5093293;28;20232;-81
2021/12/05 10:09:40;;;;;;;26.07;15.37;;;;;;;15.80;72.07;94053.75;5074847;28;20197;-83
2021/12/05 10:15:52;;;;;;;25.47;16.43;;;;;;;17.89;63.64;94046.06;5090480;28;20251;-85
2021/12/05 10:38:15;;;;;;;20.50;14.18;;;;;;;22.50;41.88;94024.91;5090994;28;20278;-84
2021/12/05 10:40:54;;;;;;;22.45;13.50;;;;;;;22.49;42.57;94019.91;5092190;28;20189;-81
2021/12/05 10:43:25;;;;;;;21.55;14.73;;;;;;;22.47;42.51;94014.94;5091750;28;20213;-81
2021/12/05 10:45:55;;;;;;;24.20;15.27;;;;;;;22.58;41.97;94008.25;5090646;28;20299;-79
2021/12/05 10:48:26;;;;;;;22.60;15.48;;;;;;;22.95;41.35;94014.09;5091495;28;20205;-80
2021/12/05 10:50:57;;;;;;;22.52;15.80;;;;;;;23.24;40.16;94003.69;5091182;28;20292;-78
2021/12/05 10:53:31;;;;;;;26.77;16.35;;;;;;;23.15;39.76;93997.59;5088766;28;20235;-79
2021/12/05 10:56:06;;;;;;;28.58;16.25;;;;;;;22.72;40.19;93997.56;5089635;28;20327;-81
2021/12/05 10:58:39;;;;;;;26.50;17.02;;;;;;;22.46;41.27;93996.69;5085741;28;20200;-80
2021/12/05 11:01:12;;;;;;;22.52;16.45;;;;;;;22.33;40.85;93984.34;5090328;28;20180;-82
2021/12/05 11:03:41;;;;;;;29.73;17.20;;;;;;;22.41;40.85;93973.78;5089117;28;20568;-80
2021/12/05 11:06:24;;;;;;;25.83;17.30;;;;;;;22.44;41.25;93965.22;5089234;28;20201;-82
2021/12/05 11:08:57;;;;;;;21.65;15.45;;;;;;;22.63;40.25;93967.59;5089219;28;20200;-79
2021/12/05 11:11:26;;;;;;;20.58;13.55;;;;;;;22.80;39.56;93966.88;5090624;28;20228;-81
2021/12/05 11:13:58;;;;;;;19.67;12.70;;;;;;;23.05;38.65;93974.06;5090651;28;20204;-80
2021/12/05 11:16:48;;;;;;;21.95;13.02;;;;;;;23.22;38.27;93967.97;5090809;28;20703;-80
2021/12/05 11:19:26;;;;;;;22.65;13.20;;;;;;;23.34;38.10;93962.81;5090646;28;20243;-81
2021/12/05 11:21:59;;;;;;;18.27;12.10;;;;;;;23.54;38.26;93954.22;5090465;28;20204;-81
2021/12/05 11:24:33;;;;;;;17.27;12.48;;;;;;;24.07;37.08;93951.84;5086681;28;20682;-78
2021/12/05 11:27:26;;;;;;;20.63;13.15;;;;;;;24.50;36.18;93953.56;5089773;28;20199;-79
2021/12/05 11:30:14;;;;;;;22.38;13.82;;;;;;;24.17;36.59;93954.19;5083534;28;20958;-79
2021/12/05 11:32:51;;;;;;;19.27;12.23;;;;;;;24.16;36.68;93944.66;5085716;28;20201;-78
2021/12/05 11:35:27;;;;;;;20.20;12.85;;;;;;;24.09;36.38;93930.31;5086807;28;20333;-78
2021/12/05 11:38:04;;;;;;;21.15;13.32;;;;;;;24.16;36.18;93935.91;5088048;28;20208;-77
2021/12/05 11:40:47;;;;;;;19.48;13.50;;;;;;;23.92;36.11;93915.22;5088995;28;20238;-77
2021/12/05 11:43:17;;;;;;;20.30;13.60;;;;;;;23.88;36.50;93922.25;5082248;28;20927;-77
2021/12/05 11:45:55;;;;;;;20.63;13.95;;;;;;;23.81;36.34;93906.03;5087655;28;20192;-78
2021/12/05 11:48:25;;;;;;;20.27;13.93;;;;;;;23.96;35.83;93916.13;5085173;28;20565;-80
2021/12/05 11:50:54;;;;;;;22.13;13.82;;;;;;;23.60;36.35;93913.16;5088974;28;20205;-78
2021/12/05 11:53:46;;;;;;;21.75;14.48;;;;;;;23.72;36.89;93908.72;5086779;28;20241;-79
2021/12/05 11:56:20;;;;;;;20.95;14.07;;;;;;;23.57;36.46;93905.84;5088361;28;20212;-80
2021/12/05 11:59:10;;;;;;;17.95;13.70;;;;;;;23.56;37.07;93915.66;5089385;28;20203;-78
2021/12/05 12:01:42;;;;;;;22.00;14.88;;;;;;;23.92;36.21;93912.56;5088911;28;20232;-79
2021/12/05 12:04:15;;;;;;;20.17;13.30;;;;;;;23.06;37.45;93907.44;5083319;28;20204;-78
2021/12/05 12:06:46;;;;;;;22.85;14.27;;;;;;;22.51;38.46;93891.38;5089932;28;20203;-77
2021/12/05 12:09:15;;;;;;;25.20;14.55;;;;;;;22.51;38.09;93885.31;5090319;28;20289;-79
2021/12/05 12:11:44;;;;;;;22.27;12.70;;;;;;;22.59;38.46;93893.28;5089174;28;20326;-79
2021/12/05 12:14:12;;;;;;;21.02;12.80;;;;;;;22.78;37.86;93892.97;5088427;28;20311;-77
2021/12/05 12:16:40;;;;;;;21.02;13.15;;;;;;;22.74;38.01;93885.97;5088153;28;20252;-78
2021/12/05 12:19:08;;;;;;;19.98;12.35;;;;;;;22.88;37.70;93883.94;5080935;28;20268;-77
2021/12/05 12:21:41;;;;;;;20.13;13.38;;;;;;;22.85;37.64;93884.56;5089315;28;20266;-83
2021/12/05 12:24:10;;;;;;;15.43;10.77;;;;;;;22.64;37.70;93881.75;5086876;28;20262;-79
2021/12/05 12:26:38;;;;;;;16.27;11.35;;;;;;;22.78;37.60;93874.41;5088556;28;20228;-81
2021/12/05 12:29:11;;;;;;;16.67;11.02;;;;;;;23.00;37.42;93876.13;5082594;28;20241;-77
2021/12/05 12:31:41;;;;;;;17.55;11.50;;;;;;;22.78;37.78;93876.28;5088563;28;20245;-78
2021/12/05 12:34:12;;;;;;;17.58;10.50;;;;;;;22.70;37.16;93869.13;5088552;28;20662;-81
2021/12/05 12:36:51;;;;;;;16.75;9.30;;;;;;;22.35;37.30;93861.16;5089062;28;20275;-84
2021/12/05 12:39:34;;;;;;;17.23;9.73;;;;;;;22.22;38.09;93858.66;5090474;28;20238;-83
2021/12/05 12:42:10;;;;;;;12.95;8.73;;;;;;;21.98;38.30;93873.06;5089190;28;20200;-80
2021/12/05 12:44:56;;;;;;;13.10;8.95;;;;;;;22.06;38.06;93863.59;5089307;28;20196;-83
2021/12/05 12:47:31;;;;;;;15.27;9.43;;;;;;;21.59;38.98;93854.53;5079336;28;20237;-83
2021/12/05 12:50:42;;;;;;;15.02;10.20;;;;;;;21.63;39.17;93852.84;5089228;28;20206;-83
2021/12/05 12:53:19;;;;;;;18.20;9.85;;;;;;;21.61;38.81;93830.44;5079904;28;20297;-84
2021/12/05 12:55:54;;;;;;;14.63;10.18;;;;;;;21.43;39.67;93850.75;5089765;28;20252;-86
2021/12/05 12:58:44;;;;;;;17.35;10.18;;;;;;;21.66;39.36;93849.59;5088497;28;20200;-82
2021/12/05 13:01:31;;;;;;;18.45;10.90;;;;;;;21.70;39.28;93849.78;5088182;28;20211;-82
2021/12/05 13:10:08;;;;;;;18.08;10.82;;;;;;;21.71;39.33;93846.03;5028045;28;20272;-79
2021/12/05 13:12:52;;;;;;;16.40;10.43;;;;;;;21.29;40.05;93837.63;5081340;28;20196;-82
2021/12/05 13:15:31;;;;;;;17.40;10.68;;;;;;;21.26;40.61;93840.88;5091442;28;20189;-83
2021/12/05 13:18:05;;;;;;;18.58;10.70;;;;;;;21.23;40.35;93836.19;5091642;28;20227;-82
2021/12/05 13:20:52;;;;;;;21.40;10.98;;;;;;;21.29;40.41;93831.56;5089238;28;20200;-75
2021/12/05 13:23:30;;;;;;;19.33;11.63;;;;;;;21.45;40.39;93833.50;5090852;28;20744;-85
2021/12/05 13:26:15;;;;;;;19.20;10.63;;;;;;;21.31;40.74;93834.66;5090056;28;20193;-80
2021/12/05 13:28:46;;;;;;;19.30;10.88;;;;;;;21.23;41.17;93827.50;5088626;28;20590;-79
2021/12/05 13:31:38;;;;;;;21.13;10.70;;;;;;;21.12;41.36;93836.78;5090129;28;20204;-79
2021/12/05 13:34:32;;;;;;;17.70;11.20;;;;;;;21.28;41.19;93825.50;5090710;28;20197;-82
2021/12/05 13:37:23;;;;;;;18.58;12.02;;;;;;;21.17;41.35;93824.19;5091682;28;20228;-82
2021/12/05 13:39:52;;;;;;;16.30;11.55;;;;;;;20.67;42.09;93828.84;5091502;28;20337;-82
2021/12/05 13:42:24;;;;;;;20.13;11.82;;;;;;;19.69;43.92;93832.28;5092086;28;20279;-83
2021/12/05 13:45:14;;;;;;;21.02;12.63;;;;;;;18.54;46.50;93830.63;5092158;28;20254;-77
2021/12/05 13:47:48;;;;;;;19.38;12.45;;;;;;;17.34;49.83;93829.28;5089996;28;20201;-81
2021/12/05 13:50:37;;;;;;;20.47;12.43;;;;;;;16.21;53.20;93821.09;5092081;28;20188;-82
2021/12/05 13:53:29;;;;;;;16.23;10.70;;;;;;;15.28;56.47;93824.41;5092069;28;20719;-81
2021/12/05 13:56:06;;;;;;;17.47;11.20;;;;;;;14.65;58.45;93820.63;5091361;28;20772;-81
2021/12/05 13:58:45;;;;;;;19.27;11.93;;;;;;;14.23;60.27;93820.03;5089393;28;20189;-80
2021/12/05 14:01:17;;;;;;;19.63;12.43;;;;;;;13.78;62.07;93819.97;5088185;28;20542;-83
2021/12/05 14:03:57;;;;;;;18.40;12.10;;;;;;;13.49;62.60;93815.22;5091784;28;20272;-84
2021/12/05 14:06:35;;;;;;;16.70;11.43;;;;;;;13.14;64.14;93817.66;5092036;28;20213;-81
2021/12/05 14:09:08;;;;;;;18.40;11.90;;;;;;;12.90;65.46;93814.63;5091493;28;20200;-81
2021/12/05 14:11:38;;;;;;;21.53;12.60;;;;;;;12.71;67.09;93825.72;5091494;28;20734;-82
2021/12/05 14:14:06;;;;;;;20.27;13.47;;;;;;;12.41;68.46;93821.88;5089990;28;20262;-79
2021/12/05 14:16:37;;;;;;;22.93;13.73;;;;;;;12.16;69.84;93815.69;5090222;28;20224;-87
2021/12/05 14:19:14;;;;;;;22.80;13.03;;;;;;;12.06;70.89;93826.81;5085460;28;20209;-84
2021/12/05 14:21:47;;;;;;;21.00;12.73;;;;;;;11.90;71.71;93819.88;5090401;28;20222;-86
2021/12/05 14:24:15;;;;;;;20.70;12.57;;;;;;;11.69;71.79;93813.69;5089504;28;20290;-80
2021/12/05 14:26:43;;;;;;;20.90;13.03;;;;;;;11.57;72.72;93815.59;5088543;28;20292;-78
2021/12/05 14:29:14;;;;;;;19.97;12.40;;;;;;;11.46;73.42;93819.13;5089670;28;20635;-78
2021/12/05 14:31:46;;;;;;;21.53;12.83;;;;;;;11.40;73.35;93810.47;5089608;28;20242;-78
2021/12/05 14:34:14;;;;;;;19.63;12.33;;;;;;;11.35;73.21;93818.25;5084436;28;20200;-79
2021/12/05 14:36:46;;;;;;;21.43;12.23;;;;;;;11.24;73.77;93813.94;5085473;28;20666;-77
2021/12/05 14:39:18;;;;;;;20.73;11.77;;;;;;;11.07;74.10;93815.03;5084520;28;20196;-77
2021/12/05 14:41:49;;;;;;;20.60;11.60;;;;;;;10.90;74.91;93806.50;5089321;28;20197;-78
2021/12/05 14:44:18;;;;;;;20.67;11.97;;;;;;;10.73;75.96;93804.72;5090127;28;20196;-78
2021/12/05 14:46:56;;;;;;;22.10;12.20;;;;;;;10.36;78.63;93803.66;5089648;28;20203;-78
2021/12/05 14:49:26;;;;;;;22.73;12.47;;;;;;;10.21;80.10;93812.03;5089882;28;20231;-78
2021/12/05 14:51:57;;;;;;;22.80;13.00;;;;;;;10.04;82.57;93823.38;5089496;28;20295;-78
2021/12/05 14:54:33;;;;;;;23.33;13.10;;;;;;;10.13;81.80;93837.56;5089092;28;20692;-78
2021/12/05 14:57:05;;;;;;;22.63;13.43;;;;;;;10.09;82.22;93834.63;5088783;28;20698;-78
2021/12/05 14:59:33;;;;;;;19.33;12.50;;;;;;;10.03;82.08;93832.19;5089471;28;20196;-77
2021/12/05 15:02:04;;;;;;;23.20;13.70;;;;;;;9.93;83.17;93835.38;5093418;28;20726;-84
2021/12/05 15:04:35;;;;;;;21.93;13.27;;;;;;;9.83;84.10;93829.25;5090483;28;20296;-77
2021/12/05 15:07:07;;;;;;;25.80;15.53;;;;;;;9.69;85.21;93833.94;5088857;28;20200;-72
2021/12/05 15:09:38;;;;;;;33.77;16.53;;;;;;;9.59;85.34;93836.34;5086121;28;20282;-76
2021/12/05 15:12:09;;;;;;;27.13;15.70;;;;;;;9.52;85.89;93836.47;5088803;28;20220;-73
2021/12/05 15:14:42;;;;;;;28.83;16.40;;;;;;;9.47;86.06;93833.00;5088639;28;20701;-73
2021/12/05 15:17:13;;;;;;;27.20;16.33;;;;;;;9.35;87.25;93832.28;5083956;28;20228;-72
2021/12/05 15:19:43;;;;;;;29.93;17.20;;;;;;;9.28;87.30;93826.41;5088057;28;20205;-72
2021/12/05 15:22:13;;;;;;;28.47;17.47;;;;;;;9.18;87.87;93828.81;5089263;28;20264;-72
2021/12/05 15:24:50;;;;;;;32.53;18.53;;;;;;;9.04;88.76;93834.25;5087479;28;20572;-72
2021/12/05 15:27:20;;;;;;;35.50;19.27;;;;;;;8.87;90.65;93842.94;5088520;28;20197;-72
2021/12/05 15:29:50;;;;;;;39.63;19.50;;;;;;;8.70;91.37;93842.84;5088090;28;20216;-72
2021/12/05 15:32:21;;;;;;;33.60;20.10;;;;;;;8.62;92.08;93843.19;5088333;28;20208;-71
2021/12/05 15:34:51;;;;;;;36.60;20.30;;;;;;;8.63;92.76;93834.41;5088398;28;20207;-72
2021/12/05 15:37:22;;;;;;;36.60;20.53;;;;;;;8.66;91.88;93833.94;5089045;28;20273;-71
2021/12/05 15:39:52;;;;;;;37.97;20.10;;;;;;;8.62;92.00;93850.16;5087293;28;20196;-73
2021/12/05 15:42:23;;;;;;;35.13;20.07;;;;;;;8.57;92.60;93847.47;5088320;28;20288;-72
2021/12/05 15:44:54;;;;;;;33.80;20.03;;;;;;;8.47;93.36;93846.22;5087665;28;20232;-73
2021/12/05 15:47:24;;;;;;;36.77;20.50;;;;;;;8.46;92.61;93864.56;5086248;28;20203;-72
2021/12/05 15:49:59;;;;;;;33.87;19.90;;;;;;;8.43;93.12;93865.81;5086343;28;20203;-72
2021/12/05 15:52:35;;;;;;;35.60;20.20;;;;;;;8.35;93.64;93873.13;5087414;28;20196;-72
2021/12/05 15:55:07;;;;;;;37.87;21.70;;;;;;;8.28;94.55;93880.22;5086606;28;20253;-72
2021/12/05 15:57:38;;;;;;;37.67;19.33;;;;;;;8.16;95.18;93877.56;5084316;28;20220;-72
2021/12/05 16:00:11;;;;;;;36.77;19.20;;;;;;;8.12;95.46;93884.19;5088461;28;20197;-72
2021/12/05 16:02:41;;;;;;;30.23;17.80;;;;;;;8.08;96.21;93874.50;5087516;28;20208;-72
2021/12/05 16:05:20;;;;;;;36.60;17.97;;;;;;;8.01;97.30;93882.34;5086269;28;20215;-72
2021/12/05 16:07:51;;;;;;;30.70;17.23;;;;;;;7.95;97.50;93889.22;5087695;28;20197;-74
2021/12/05 16:10:24;;;;;;;31.00;16.50;;;;;;;7.91;97.86;93895.03;5088221;28;20204;-72